Terminal Aerodrome Forecast
Issued by NWS

Home | Current Version | Previous Version | Text Only | Print | Product List | Glossary On
Versions: 1 2 3 4 5 6 7 8 9 10 11 12 13 14 15 16 17 18 19 20
000
FTUS46 KSTO 252300
TAFRDD
TAF
KRDD 252337Z 2600/2624 17025G35KT P6SM SHRA VCTS OVC040CB
      TEMPO 2600/2602 1SM TSRA BKN024CB
     FM260400 20015G25KT P6SM VCSH BKN050
     FM260700 20008KT P6SM BKN060
     FM261500 34007KT P6SM SKC=

USA.gov is the U.S. government's official web portal to all federal, state and local government web resources and services.